Time;durP1;ratioP1;P1;durP2;ratioP2;P2;SDS_P1;SDS_P2;PMS_P1;PMS_P2;Temp;Humidity;BMP_temperature;BMP_pressure;BME280_temperature;BME280_humidity;BME280_pressure;Samples;Min_cycle;Max_cycle;Signal;HPM_P1;HPM_P2
2023/02/25 00:00:16;;;;;;;7.05;5.10;;;;;;;3.06;100.00;94671.34;4996355;28;24477;-79
2023/02/25 00:02:43;;;;;;;16.48;9.85;;;;;;;2.86;100.00;94668.97;4997062;28;24444;-79
2023/02/25 00:05:11;;;;;;;5.80;4.65;;;;;;;2.84;100.00;94670.75;4996347;28;24445;-79
2023/02/25 00:07:37;;;;;;;15.00;9.75;;;;;;;2.74;100.00;94662.72;4995763;28;24447;-79
2023/02/25 00:10:05;;;;;;;17.10;10.18;;;;;;;2.76;100.00;94663.47;4997001;28;25131;-79
2023/02/25 00:12:33;;;;;;;7.37;5.80;;;;;;;2.84;100.00;94666.47;4998469;28;24429;-79
2023/02/25 00:15:00;;;;;;;9.33;5.93;;;;;;;2.86;100.00;94661.31;4999934;28;24440;-79
2023/02/25 00:17:26;;;;;;;9.37;6.47;;;;;;;2.82;100.00;94664.91;5002872;28;24467;-79
2023/02/25 00:19:53;;;;;;;13.97;8.20;;;;;;;2.85;100.00;94670.66;4999440;28;24448;-79
2023/02/25 00:22:20;;;;;;;9.05;6.22;;;;;;;2.86;100.00;94676.63;4997254;28;24437;-78
2023/02/25 00:24:46;;;;;;;6.63;4.70;;;;;;;2.90;100.00;94680.69;4994458;28;24441;-79
2023/02/25 00:27:13;;;;;;;8.10;5.25;;;;;;;2.90;100.00;94676.41;4990320;28;24440;-80
2023/02/25 00:29:41;;;;;;;8.18;4.97;;;;;;;2.82;100.00;94680.25;5003543;28;24441;-80
2023/02/25 00:32:07;;;;;;;7.72;4.82;;;;;;;2.86;100.00;94680.03;5001554;28;25340;-79
2023/02/25 00:34:34;;;;;;;9.13;4.50;;;;;;;2.85;100.00;94670.66;5003797;28;24441;-79
2023/02/25 00:37:01;;;;;;;8.02;4.43;;;;;;;2.80;100.00;94659.84;4995833;28;24461;-79
2023/02/25 00:39:40;;;;;;;9.85;4.88;;;;;;;2.82;100.00;94662.34;4998693;28;24472;-79
2023/02/25 00:42:07;;;;;;;6.30;4.32;;;;;;;3.07;100.00;94661.91;4999768;28;24851;-79
2023/02/25 00:44:33;;;;;;;10.30;4.40;;;;;;;2.87;100.00;94671.44;4999575;28;24429;-79
2023/02/25 00:47:01;;;;;;;6.72;4.28;;;;;;;2.97;100.00;94678.66;4994023;28;26090;-79
2023/02/25 00:49:27;;;;;;;6.15;4.40;;;;;;;2.94;100.00;94671.97;4992763;28;24437;-79
2023/02/25 00:51:54;;;;;;;8.00;4.65;;;;;;;3.04;100.00;94678.28;4994798;28;24433;-79
2023/02/25 00:54:21;;;;;;;8.38;4.32;;;;;;;2.86;100.00;94684.31;4992786;28;24467;-79
2023/02/25 00:56:47;;;;;;;5.90;4.20;;;;;;;3.05;100.00;94689.31;4995477;28;24480;-79
2023/02/25 00:59:14;;;;;;;6.60;3.92;;;;;;;2.90;100.00;94685.81;4993325;28;25194;-79
2023/02/25 01:01:41;;;;;;;6.22;4.15;;;;;;;2.92;100.00;94674.56;4992485;28;24436;-79
2023/02/25 01:04:10;;;;;;;6.50;4.20;;;;;;;2.92;100.00;94678.88;4994388;28;25123;-79
2023/02/25 01:06:38;;;;;;;7.07;4.63;;;;;;;2.85;100.00;94669.84;4995578;28;24873;-79
2023/02/25 01:09:06;;;;;;;11.98;5.35;;;;;;;2.79;100.00;94668.44;4996990;28;24441;-79
2023/02/25 01:11:35;;;;;;;7.95;5.13;;;;;;;2.61;100.00;94669.34;4995892;28;24443;-79
2023/02/25 01:14:04;;;;;;;10.05;5.43;;;;;;;2.74;100.00;94670.38;4994352;28;24451;-79
2023/02/25 01:16:32;;;;;;;7.73;4.70;;;;;;;2.83;100.00;94685.28;4996221;28;24532;-79
2023/02/25 01:19:01;;;;;;;7.75;5.55;;;;;;;2.86;100.00;94685.13;4994456;28;24448;-79
2023/02/25 01:21:32;;;;;;;9.87;5.47;;;;;;;2.74;100.00;94700.25;4990085;28;24808;-79
2023/02/25 01:24:02;;;;;;;8.90;5.93;;;;;;;2.63;100.00;94701.63;4997595;28;24552;-78
2023/02/25 01:26:30;;;;;;;8.85;6.15;;;;;;;2.61;100.00;94705.97;5003711;28;24436;-79
2023/02/25 01:28:57;;;;;;;8.03;5.97;;;;;;;2.60;100.00;94721.38;4995679;28;24452;-78
2023/02/25 01:31:27;;;;;;;7.32;5.78;;;;;;;2.52;100.00;94715.78;4992818;28;24448;-78
2023/02/25 01:33:54;;;;;;;10.70;6.57;;;;;;;2.55;100.00;94711.38;4989652;28;25001;-79
2023/02/25 01:36:21;;;;;;;9.15;5.97;;;;;;;2.52;100.00;94708.97;4995458;28;24444;-79
2023/02/25 01:38:49;;;;;;;12.15;7.03;;;;;;;2.48;100.00;94688.72;4992415;28;24467;-78
2023/02/25 01:41:15;;;;;;;9.70;6.15;;;;;;;2.53;100.00;94684.25;4990142;28;24442;-79
2023/02/25 01:43:42;;;;;;;11.25;6.78;;;;;;;2.52;100.00;94683.41;4987244;28;24436;-79
2023/02/25 01:46:08;;;;;;;11.13;6.35;;;;;;;2.48;100.00;94674.22;4993365;28;24442;-79
2023/02/25 01:48:38;;;;;;;13.82;6.75;;;;;;;2.47;100.00;94684.53;4993663;28;24796;-79
2023/02/25 01:51:09;;;;;;;8.73;6.60;;;;;;;2.45;100.00;94678.66;4988077;28;24436;-79
2023/02/25 01:53:40;;;;;;;19.52;6.88;;;;;;;2.40;100.00;94692.47;4986980;28;24464;-78
2023/02/25 01:56:12;;;;;;;10.60;6.68;;;;;;;2.38;100.00;94701.16;4987344;28;24444;-79
2023/02/25 01:58:39;;;;;;;10.00;6.72;;;;;;;2.39;100.00;94711.28;4995453;28;24463;-79
2023/02/25 02:01:09;;;;;;;10.73;6.60;;;;;;;2.34;100.00;94705.56;4993171;28;25006;-79
2023/02/25 02:03:37;;;;;;;7.97;6.60;;;;;;;2.35;100.00;94707.22;4993522;28;24999;-79
2023/02/25 02:06:09;;;;;;;11.80;7.00;;;;;;;2.40;100.00;94714.66;4993702;28;25021;-79
2023/02/25 02:08:36;;;;;;;12.75;7.15;;;;;;;2.38;100.00;94709.63;4993425;28;24436;-79
2023/02/25 02:11:03;;;;;;;10.15;6.78;;;;;;;2.49;100.00;94713.41;4994666;28;24444;-79
2023/02/25 02:13:35;;;;;;;10.93;6.70;;;;;;;2.48;100.00;94732.19;4992918;28;24475;-79
2023/02/25 02:16:14;;;;;;;10.70;6.60;;;;;;;2.43;100.00;94719.63;4992119;28;24451;-79
2023/02/25 02:18:47;;;;;;;15.68;7.20;;;;;;;2.38;100.00;94726.69;4988800;28;24461;-78
2023/02/25 02:21:35;;;;;;;9.60;7.00;;;;;;;2.41;100.00;94729.09;4994330;28;24429;-79
2023/02/25 02:24:30;;;;;;;11.82;7.40;;;;;;;2.50;100.00;94727.84;4994071;28;24436;-79
2023/02/25 02:27:02;;;;;;;12.07;6.75;;;;;;;2.51;100.00;94724.38;4992982;28;24425;-79
2023/02/25 02:30:04;;;;;;;12.73;7.22;;;;;;;2.55;100.00;94724.13;4988823;28;25123;-79
2023/02/25 02:32:39;;;;;;;12.88;7.18;;;;;;;2.44;100.00;94718.72;4995100;28;24487;-79
2023/02/25 02:35:16;;;;;;;16.20;7.53;;;;;;;2.45;100.00;94710.19;4990034;28;24966;-79
2023/02/25 02:37:51;;;;;;;9.60;7.05;;;;;;;2.55;100.00;94719.03;4994342;28;24468;-79
2023/02/25 02:40:34;;;;;;;9.95;6.60;;;;;;;2.62;100.00;94706.78;4987887;28;24418;-79
2023/02/25 02:43:10;;;;;;;10.00;6.80;;;;;;;2.49;100.00;94714.25;4992296;28;24428;-79
2023/02/25 02:45:44;;;;;;;11.65;7.03;;;;;;;2.43;100.00;94717.06;4989549;28;24436;-79
2023/02/25 02:48:17;;;;;;;9.98;7.50;;;;;;;2.42;100.00;94717.97;4988202;28;24440;-79
2023/02/25 02:50:46;;;;;;;9.82;6.85;;;;;;;2.37;100.00;94723.31;4994854;28;24444;-79
2023/02/25 02:53:19;;;;;;;12.40;7.53;;;;;;;2.35;100.00;94730.22;4994213;28;24433;-79
2023/02/25 02:55:51;;;;;;;11.25;7.05;;;;;;;2.32;100.00;94737.19;4992249;28;24595;-78
2023/02/25 02:58:23;;;;;;;10.90;7.78;;;;;;;2.29;100.00;94727.13;4985635;28;24828;-79
2023/02/25 03:00:55;;;;;;;10.95;7.68;;;;;;;2.25;100.00;94739.19;4994023;28;24433;-79
2023/02/25 03:03:35;;;;;;;10.73;7.00;;;;;;;2.21;100.00;94731.75;4994347;28;24439;-79
2023/02/25 03:06:04;;;;;;;11.40;7.10;;;;;;;2.18;100.00;94735.28;4994624;28;24532;-79
2023/02/25 03:08:35;;;;;;;11.85;7.95;;;;;;;2.16;100.00;94737.09;4994418;28;24445;-79
2023/02/25 03:11:04;;;;;;;10.20;7.55;;;;;;;2.26;100.00;94737.47;4991961;28;24794;-78
2023/02/25 03:13:30;;;;;;;11.02;6.88;;;;;;;2.22;100.00;94735.97;4993872;28;24989;-78
2023/02/25 03:16:00;;;;;;;8.70;6.60;;;;;;;2.14;100.00;94749.09;4993346;28;24456;-78
2023/02/25 03:18:34;;;;;;;8.73;6.68;;;;;;;2.17;100.00;94749.78;4993970;28;25046;-79
2023/02/25 03:21:04;;;;;;;11.32;7.00;;;;;;;2.18;100.00;94759.09;4994176;28;24440;-79
2023/02/25 03:23:33;;;;;;;12.07;6.72;;;;;;;2.13;100.00;94760.22;4993620;28;24943;-79
2023/02/25 03:26:11;;;;;;;13.00;7.22;;;;;;;2.16;100.00;94762.63;4993778;28;24452;-79
2023/02/25 03:28:38;;;;;;;10.82;7.20;;;;;;;2.15;100.00;94756.72;4993767;28;24444;-79
2023/02/25 03:31:09;;;;;;;17.15;7.30;;;;;;;2.18;100.00;94758.28;4985971;28;24437;-78
2023/02/25 03:33:46;;;;;;;12.95;7.03;;;;;;;2.21;100.00;94763.25;4994328;28;24478;-79
2023/02/25 03:36:18;;;;;;;11.40;6.75;;;;;;;2.20;100.00;94759.03;4985761;28;25046;-79
2023/02/25 03:38:48;;;;;;;11.63;6.78;;;;;;;2.18;100.00;94764.19;4988892;28;24979;-79
2023/02/25 03:41:18;;;;;;;10.93;6.70;;;;;;;2.12;100.00;94771.34;4987521;28;24436;-79
2023/02/25 03:43:46;;;;;;;12.02;6.47;;;;;;;2.18;100.00;94766.75;4983603;28;24441;-79
2023/02/25 03:46:14;;;;;;;9.82;6.85;;;;;;;2.15;100.00;94766.91;4990172;28;24437;-79
2023/02/25 03:48:43;;;;;;;14.65;6.82;;;;;;;2.22;100.00;94771.72;4993636;28;24453;-79
2023/02/25 03:51:13;;;;;;;11.18;6.60;;;;;;;2.15;100.00;94768.63;4992449;28;24985;-78
2023/02/25 03:53:40;;;;;;;13.60;6.00;;;;;;;2.10;100.00;94768.00;4985655;28;24469;-79
2023/02/25 03:56:08;;;;;;;10.80;5.90;;;;;;;2.08;100.00;94767.28;4990467;28;24429;-78
2023/02/25 03:58:37;;;;;;;8.85;5.22;;;;;;;2.07;100.00;94771.53;4989707;28;24468;-78
2023/02/25 04:01:07;;;;;;;8.65;5.78;;;;;;;2.04;100.00;94771.69;4992252;28;24796;-78
2023/02/25 04:03:34;;;;;;;9.97;5.53;;;;;;;2.02;100.00;94770.09;4993435;28;24444;-78
2023/02/25 04:06:02;;;;;;;10.35;5.88;;;;;;;2.00;100.00;94775.25;4992660;28;24433;-79
2023/02/25 04:08:28;;;;;;;7.97;5.22;;;;;;;1.94;100.00;94778.94;4993331;28;24440;-78
2023/02/25 04:10:55;;;;;;;10.13;4.95;;;;;;;1.93;100.00;94779.00;4985073;28;24451;-78
2023/02/25 04:13:22;;;;;;;7.57;4.50;;;;;;;1.91;100.00;94794.38;4987979;28;24449;-78
2023/02/25 04:15:50;;;;;;;7.47;4.50;;;;;;;1.99;100.00;94800.88;4989205;28;24448;-79
2023/02/25 04:18:17;;;;;;;8.32;4.53;;;;;;;1.97;100.00;94805.25;4991810;28;24555;-78
2023/02/25 04:20:43;;;;;;;10.30;4.28;;;;;;;1.88;100.00;94817.50;4993321;28;24428;-78
2023/02/25 04:23:15;;;;;;;8.35;3.70;;;;;;;1.86;100.00;94821.03;5003473;28;24471;-78
2023/02/25 04:25:42;;;;;;;10.07;4.33;;;;;;;1.84;100.00;94813.41;5004962;28;24505;-78
2023/02/25 04:28:08;;;;;;;9.90;3.95;;;;;;;1.88;100.00;94812.38;4989941;28;24449;-78
2023/02/25 04:30:35;;;;;;;6.38;3.90;;;;;;;1.84;100.00;94807.50;4991435;28;24437;-78
2023/02/25 04:33:02;;;;;;;5.85;3.78;;;;;;;1.92;100.00;94802.88;4994000;28;24445;-79
2023/02/25 04:35:29;;;;;;;6.22;3.22;;;;;;;1.79;100.00;94806.88;4994153;28;24441;-79
2023/02/25 04:37:55;;;;;;;5.55;3.30;;;;;;;1.93;100.00;94799.44;4990110;28;24588;-78
2023/02/25 04:40:24;;;;;;;5.18;3.05;;;;;;;1.97;100.00;94800.97;4998041;28;24440;-79
2023/02/25 04:42:50;;;;;;;8.13;3.15;;;;;;;1.87;100.00;94804.81;4995152;28;24438;-79
2023/02/25 04:45:17;;;;;;;6.82;3.00;;;;;;;1.85;100.00;94811.69;4996893;28;24449;-79
2023/02/25 04:47:43;;;;;;;4.55;2.55;;;;;;;1.68;100.00;94817.56;4997023;28;24437;-79
2023/02/25 04:50:11;;;;;;;4.65;2.40;;;;;;;1.65;100.00;94817.69;4988248;28;24445;-79
2023/02/25 04:52:38;;;;;;;6.57;2.60;;;;;;;1.75;100.00;94816.38;4995943;28;24490;-78
2023/02/25 04:55:05;;;;;;;6.72;2.22;;;;;;;1.74;100.00;94824.91;4995300;28;24456;-78
2023/02/25 04:57:33;;;;;;;5.53;2.03;;;;;;;1.59;100.00;94815.38;4995423;28;24816;-79
2023/02/25 05:00:00;;;;;;;4.47;2.30;;;;;;;1.60;100.00;94820.44;4995402;28;24429;-79
2023/02/25 05:02:26;;;;;;;5.50;2.03;;;;;;;1.65;100.00;94818.50;4995139;28;24444;-79
2023/02/25 05:04:53;;;;;;;7.80;2.00;;;;;;;1.55;100.00;94814.69;4993499;28;24452;-78
2023/02/25 05:07:19;;;;;;;4.32;1.70;;;;;;;1.46;100.00;94817.63;4996665;28;24433;-78
2023/02/25 05:09:46;;;;;;;5.20;1.40;;;;;;;1.31;100.00;94820.84;4996655;28;24448;-79
2023/02/25 05:12:12;;;;;;;2.88;1.25;;;;;;;1.39;100.00;94818.78;4992860;28;25065;-79
2023/02/25 05:14:40;;;;;;;2.53;1.20;;;;;;;1.39;100.00;94816.25;4995127;28;24839;-79
2023/02/25 05:17:06;;;;;;;3.00;1.40;;;;;;;1.43;100.00;94816.03;4995920;28;24448;-79
2023/02/25 05:19:33;;;;;;;4.47;1.25;;;;;;;1.40;100.00;94823.81;4996013;28;24464;-79
2023/02/25 05:21:59;;;;;;;4.88;1.40;;;;;;;1.35;100.00;94820.63;4996352;28;24796;-78
2023/02/25 05:24:26;;;;;;;4.43;1.38;;;;;;;1.42;100.00;94821.22;4995846;28;24441;-78
2023/02/25 05:26:52;;;;;;;5.15;1.40;;;;;;;1.46;100.00;94827.84;4991687;28;24474;-79
2023/02/25 05:29:19;;;;;;;4.70;1.38;;;;;;;1.41;100.00;94819.56;4991291;28;25053;-79
2023/02/25 05:31:48;;;;;;;7.70;1.65;;;;;;;1.41;100.00;94817.03;4996811;28;24444;-79
2023/02/25 05:34:16;;;;;;;3.83;1.40;;;;;;;1.45;100.00;94819.38;4993818;28;24983;-79
2023/02/25 05:36:42;;;;;;;1.93;0.90;;;;;;;1.36;100.00;94829.13;4992463;28;24847;-79
2023/02/25 05:39:12;;;;;;;3.30;1.30;;;;;;;1.39;100.00;94818.78;4996261;28;24472;-78
2023/02/25 05:41:39;;;;;;;5.53;1.38;;;;;;;1.50;100.00;94819.16;4994116;28;24947;-79
2023/02/25 05:44:06;;;;;;;4.37;1.30;;;;;;;1.51;100.00;94823.38;4995667;28;24444;-79
2023/02/25 05:46:33;;;;;;;2.25;1.10;;;;;;;1.61;100.00;94818.72;4992860;28;24436;-79
2023/02/25 05:49:01;;;;;;;5.67;1.57;;;;;;;1.67;100.00;94821.00;4991730;28;24792;-79
2023/02/25 05:51:27;;;;;;;3.60;1.40;;;;;;;1.63;100.00;94819.47;4994652;28;24526;-78
2023/02/25 05:53:54;;;;;;;3.97;1.85;;;;;;;1.62;100.00;94821.19;4990979;28;24441;-79
2023/02/25 05:56:23;;;;;;;3.33;1.60;;;;;;;1.69;100.00;94827.69;4991241;28;25002;-78
2023/02/25 05:58:51;;;;;;;7.03;2.05;;;;;;;1.73;100.00;94827.56;4995128;28;24470;-79
2023/02/25 06:01:21;;;;;;;5.18;1.70;;;;;;;1.64;100.00;94826.25;4994841;28;24440;-78
2023/02/25 06:03:49;;;;;;;2.47;1.40;;;;;;;1.68;100.00;94820.09;4994872;28;24440;-79
2023/02/25 06:06:21;;;;;;;3.85;1.55;;;;;;;1.66;100.00;94814.22;4987041;28;24488;-79
2023/02/25 06:08:48;;;;;;;4.85;1.48;;;;;;;1.65;100.00;94817.69;4994669;28;24441;-79
2023/02/25 06:11:19;;;;;;;6.18;1.50;;;;;;;1.57;100.00;94815.47;4989458;28;24441;-78
2023/02/25 06:13:47;;;;;;;5.97;1.73;;;;;;;1.42;100.00;94818.66;4990130;28;24819;-78
2023/02/25 06:16:14;;;;;;;3.92;1.48;;;;;;;1.15;100.00;94824.03;4991866;28;24970;-77
2023/02/25 06:18:40;;;;;;;3.70;1.55;;;;;;;1.13;100.00;94830.06;4991675;28;24930;-77
2023/02/25 06:21:09;;;;;;;3.85;1.63;;;;;;;1.17;100.00;94839.25;4991741;28;24444;-77
2023/02/25 06:23:39;;;;;;;6.13;1.73;;;;;;;1.18;100.00;94844.28;4993733;28;24449;-78
2023/02/25 06:26:07;;;;;;;3.20;1.67;;;;;;;1.25;100.00;94844.88;4996000;28;24448;-78
2023/02/25 06:28:34;;;;;;;8.77;2.10;;;;;;;1.25;100.00;94855.06;5000449;28;24463;-78
2023/02/25 06:31:01;;;;;;;3.65;1.50;;;;;;;1.23;100.00;94864.53;5000015;28;24437;-79
2023/02/25 06:33:29;;;;;;;5.85;1.77;;;;;;;1.12;100.00;94871.78;4998093;28;24440;-78
2023/02/25 06:35:56;;;;;;;5.10;1.73;;;;;;;1.19;100.00;94868.91;5001019;28;24461;-78
2023/02/25 06:38:23;;;;;;;4.70;2.10;;;;;;;1.17;100.00;94869.88;4990221;28;24456;-78
2023/02/25 06:40:51;;;;;;;5.57;1.85;;;;;;;1.16;100.00;94865.66;4991117;28;24453;-77
2023/02/25 06:43:18;;;;;;;5.35;1.88;;;;;;;1.10;100.00;94864.19;4987075;28;24431;-78
2023/02/25 06:45:44;;;;;;;5.13;1.80;;;;;;;1.08;100.00;94873.63;4988092;28;25054;-78
2023/02/25 06:48:11;;;;;;;6.40;1.48;;;;;;;1.10;100.00;94876.94;4987523;28;24448;-78
2023/02/25 06:50:38;;;;;;;5.35;1.52;;;;;;;1.10;100.00;94871.00;4987066;28;24989;-78
2023/02/25 06:53:05;;;;;;;4.10;1.33;;;;;;;1.10;100.00;94876.94;4984428;28;24429;-78
2023/02/25 06:55:31;;;;;;;3.65;1.25;;;;;;;1.10;100.00;94878.66;4987729;28;24439;-79
2023/02/25 06:57:59;;;;;;;9.68;1.35;;;;;;;1.12;100.00;94871.78;4986886;28;24461;-78
2023/02/25 07:00:26;;;;;;;4.40;1.30;;;;;;;1.15;100.00;94876.72;4987700;28;24460;-78
2023/02/25 07:02:52;;;;;;;4.35;1.48;;;;;;;1.17;100.00;94877.50;4986748;28;24437;-79
2023/02/25 07:05:19;;;;;;;5.80;1.50;;;;;;;1.22;100.00;94878.16;4998953;28;24429;-79
2023/02/25 07:07:45;;;;;;;4.00;1.30;;;;;;;1.17;100.00;94880.88;4994607;28;24452;-78
2023/02/25 07:10:12;;;;;;;5.13;1.38;;;;;;;1.23;100.00;94869.63;4988771;28;24438;-79
2023/02/25 07:12:38;;;;;;;6.05;1.45;;;;;;;1.21;100.00;94882.41;4996516;28;24418;-78
2023/02/25 07:15:08;;;;;;;3.83;1.10;;;;;;;1.31;100.00;94884.63;4995548;28;24787;-77
2023/02/25 07:17:34;;;;;;;2.40;1.20;;;;;;;1.44;100.00;94878.09;4990061;28;24444;-78
2023/02/25 07:20:01;;;;;;;6.05;1.52;;;;;;;1.57;100.00;94883.53;4994128;28;24811;-77
2023/02/25 07:22:27;;;;;;;2.85;1.20;;;;;;;1.75;100.00;94876.84;4982713;28;24433;-78
2023/02/25 07:24:54;;;;;;;2.85;1.17;;;;;;;1.88;100.00;94891.53;4987836;28;24456;-77
2023/02/25 07:27:21;;;;;;;4.75;1.58;;;;;;;1.79;100.00;94886.00;4988970;28;24443;-79
2023/02/25 07:29:47;;;;;;;6.38;1.08;;;;;;;1.70;100.00;94884.66;4988164;28;24449;-78
2023/02/25 07:32:15;;;;;;;3.83;1.70;;;;;;;1.79;100.00;94886.84;4985113;28;24441;-78
2023/02/25 07:34:42;;;;;;;4.75;1.27;;;;;;;1.82;100.00;94880.78;4990845;28;24437;-78
2023/02/25 07:37:08;;;;;;;2.85;1.00;;;;;;;1.94;100.00;94887.91;4990826;28;24440;-80
2023/02/25 07:39:35;;;;;;;3.42;1.35;;;;;;;1.97;100.00;94887.78;4989491;28;26165;-74
2023/02/25 07:42:01;;;;;;;4.20;1.40;;;;;;;2.13;100.00;94886.22;4987314;28;24452;-79
2023/02/25 07:44:28;;;;;;;5.20;1.45;;;;;;;1.87;100.00;94884.78;4982553;28;24432;-78
2023/02/25 07:46:54;;;;;;;3.28;1.33;;;;;;;1.79;100.00;94883.47;4990205;28;24444;-77
2023/02/25 07:49:22;;;;;;;3.92;1.33;;;;;;;1.99;100.00;94874.94;4986585;28;24448;-79
2023/02/25 07:51:49;;;;;;;3.55;1.35;;;;;;;1.97;100.00;94869.91;4993198;28;24444;-79
2023/02/25 07:54:16;;;;;;;5.23;1.40;;;;;;;1.95;100.00;94869.13;4990410;28;24470;-77
2023/02/25 07:56:42;;;;;;;3.38;1.27;;;;;;;2.06;100.00;94872.03;4991536;28;24447;-79
2023/02/25 07:59:10;;;;;;;5.45;1.58;;;;;;;2.20;100.00;94873.16;4992992;28;24473;-79
2023/02/25 08:01:38;;;;;;;4.05;1.35;;;;;;;2.11;100.00;94869.28;4987376;28;24445;-78
2023/02/25 08:04:06;;;;;;;6.90;1.60;;;;;;;2.12;100.00;94871.78;4995737;28;24445;-77
2023/02/25 08:06:37;;;;;;;4.13;1.60;;;;;;;2.17;100.00;94874.94;4990936;28;24449;-78
2023/02/25 08:09:04;;;;;;;5.25;1.80;;;;;;;2.09;100.00;94877.03;4990200;28;24522;-78
2023/02/25 08:11:31;;;;;;;7.13;1.77;;;;;;;1.77;100.00;94880.97;4984280;28;24446;-78
2023/02/25 08:13:59;;;;;;;6.22;1.95;;;;;;;1.59;100.00;94892.78;4989282;28;24437;-78
2023/02/25 08:16:26;;;;;;;3.97;1.67;;;;;;;1.60;100.00;94888.53;4996884;28;24444;-78
2023/02/25 08:18:53;;;;;;;6.38;2.28;;;;;;;1.45;100.00;94882.34;4984744;28;24822;-77
2023/02/25 08:21:22;;;;;;;6.38;2.58;;;;;;;1.41;100.00;94881.63;4989950;28;24445;-79
2023/02/25 08:23:49;;;;;;;8.37;2.53;;;;;;;1.32;100.00;94876.06;4995218;28;24433;-78
2023/02/25 08:26:17;;;;;;;4.03;2.10;;;;;;;1.32;100.00;94879.44;4998487;28;24509;-78
2023/02/25 08:28:44;;;;;;;8.60;2.70;;;;;;;1.33;100.00;94883.63;4987758;28;24448;-76
2023/02/25 08:31:11;;;;;;;9.13;2.60;;;;;;;1.38;100.00;94899.59;4990575;28;24460;-79
2023/02/25 08:33:40;;;;;;;4.30;2.20;;;;;;;1.32;100.00;94892.19;4999688;28;24519;-78
2023/02/25 08:36:09;;;;;;;4.15;1.92;;;;;;;1.51;100.00;94897.38;4997522;28;24445;-78
2023/02/25 08:38:36;;;;;;;6.10;2.17;;;;;;;1.61;100.00;94897.81;4990641;28;24988;-78
2023/02/25 08:41:05;;;;;;;6.13;2.53;;;;;;;1.67;100.00;94893.31;4988488;28;24488;-79
2023/02/25 08:43:31;;;;;;;6.07;2.30;;;;;;;1.63;100.00;94893.47;4991219;28;24433;-78
2023/02/25 08:45:58;;;;;;;4.57;1.80;;;;;;;1.69;100.00;94888.13;4997094;28;24445;-79
2023/02/25 08:48:25;;;;;;;6.50;2.10;;;;;;;1.78;100.00;94887.75;4992517;28;24441;-78
2023/02/25 08:50:52;;;;;;;14.32;2.10;;;;;;;1.87;100.00;94887.34;4994208;28;24543;-78
2023/02/25 08:53:19;;;;;;;4.40;2.00;;;;;;;1.85;100.00;94890.84;4993950;28;24456;-78
2023/02/25 08:55:46;;;;;;;5.22;2.05;;;;;;;2.14;100.00;94884.47;4995549;28;24437;-78
2023/02/25 08:58:14;;;;;;;8.65;2.20;;;;;;;2.53;100.00;94888.72;4996467;28;24441;-78
2023/02/25 09:00:40;;;;;;;4.65;1.90;;;;;;;2.55;100.00;94895.41;4993625;28;24451;-78
2023/02/25 09:03:07;;;;;;;4.95;1.98;;;;;;;2.22;100.00;94894.34;4996602;28;24452;-78
2023/02/25 09:05:34;;;;;;;7.93;2.40;;;;;;;2.32;100.00;94888.78;4995593;28;24990;-79
2023/02/25 09:08:03;;;;;;;4.60;2.03;;;;;;;2.14;100.00;94900.63;4996892;28;24524;-78
2023/02/25 09:10:31;;;;;;;6.55;2.08;;;;;;;2.30;100.00;94890.59;4992019;28;24429;-79
2023/02/25 09:12:57;;;;;;;5.75;1.95;;;;;;;2.48;100.00;94896.56;4993605;28;24845;-78
2023/02/25 09:15:25;;;;;;;8.55;2.10;;;;;;;2.65;100.00;94899.19;4996265;28;24436;-78
2023/02/25 09:17:52;;;;;;;5.18;1.70;;;;;;;2.79;100.00;94885.78;4993707;28;24460;-79
2023/02/25 09:20:18;;;;;;;4.55;1.58;;;;;;;2.77;100.00;94887.56;4992283;28;24461;-78
2023/02/25 09:22:45;;;;;;;3.42;1.50;;;;;;;2.64;100.00;94887.31;4995900;28;24436;-77
2023/02/25 09:25:12;;;;;;;3.70;1.40;;;;;;;2.45;100.00;94886.50;4997233;28;24456;-78
2023/02/25 09:27:39;;;;;;;4.70;1.43;;;;;;;2.26;100.00;94883.09;4997904;28;24449;-76
2023/02/25 09:30:06;;;;;;;2.70;1.30;;;;;;;2.09;100.00;94886.41;4992699;28;24433;-78
2023/02/25 09:32:34;;;;;;;3.80;1.40;;;;;;;2.14;100.00;94881.91;4992476;28;24862;-77
2023/02/25 09:35:06;;;;;;;3.03;1.33;;;;;;;2.09;100.00;94886.41;4990989;28;24439;-77
2023/02/25 09:37:33;;;;;;;3.10;1.02;;;;;;;2.29;99.91;94877.84;4994719;28;24527;-78
2023/02/25 09:39:59;;;;;;;2.95;1.02;;;;;;;2.46;99.71;94877.94;4995588;28;24457;-78
2023/02/25 09:42:38;;;;;;;3.47;1.10;;;;;;;2.41;98.73;94874.75;4993364;28;24824;-78
2023/02/25 09:45:16;;;;;;;3.13;1.23;;;;;;;2.43;100.00;94880.63;4989009;28;24997;-78
2023/02/25 09:47:49;;;;;;;4.88;1.52;;;;;;;2.41;100.00;94874.75;4989685;28;24523;-79
2023/02/25 09:50:21;;;;;;;4.28;1.45;;;;;;;2.54;100.00;94882.69;4984661;28;24429;-79
2023/02/25 09:52:57;;;;;;;16.38;1.90;;;;;;;2.70;100.00;94872.59;4992414;28;24799;-79
2023/02/25 09:55:31;;;;;;;5.63;1.90;;;;;;;2.71;100.00;94869.97;4990598;28;24433;-78
2023/02/25 09:58:05;;;;;;;5.88;1.63;;;;;;;2.81;100.00;94872.91;4992447;28;24444;-78
2023/02/25 10:00:37;;;;;;;6.20;1.70;;;;;;;2.73;100.00;94872.44;4991456;28;24453;-78
2023/02/25 10:03:15;;;;;;;6.00;1.90;;;;;;;3.03;100.00;94875.28;4992529;28;24448;-79
2023/02/25 10:05:47;;;;;;;6.05;1.65;;;;;;;2.92;100.00;94876.63;4988037;28;25001;-77
2023/02/25 10:08:19;;;;;;;4.47;1.75;;;;;;;2.64;100.00;94882.22;4992314;28;24520;-78
2023/02/25 10:10:55;;;;;;;6.85;1.67;;;;;;;2.69;100.00;94873.50;4991270;28;24537;-78
2023/02/25 10:13:32;;;;;;;4.70;1.38;;;;;;;2.60;100.00;94865.38;4995293;28;24441;-78
2023/02/25 10:16:07;;;;;;;4.65;1.80;;;;;;;2.43;100.00;94873.78;4990830;28;24436;-76
2023/02/25 10:18:49;;;;;;;7.60;1.75;;;;;;;2.57;100.00;94865.50;4993060;28;24433;-76
2023/02/25 10:21:30;;;;;;;7.37;2.00;;;;;;;2.43;100.00;94865.28;4998201;28;24457;-77
2023/02/25 10:24:13;;;;;;;7.50;1.92;;;;;;;2.44;100.00;94866.94;4993612;28;24495;-77
2023/02/25 10:26:45;;;;;;;5.83;1.77;;;;;;;2.53;100.00;94871.66;4986337;28;24985;-78
2023/02/25 10:29:25;;;;;;;3.38;1.60;;;;;;;2.42;100.00;94871.31;4996488;28;24484;-77
2023/02/25 10:31:55;;;;;;;11.00;1.95;;;;;;;2.42;100.00;94869.56;4990075;28;25023;-78
2023/02/25 10:34:25;;;;;;;5.65;2.03;;;;;;;2.45;100.00;94867.75;4991338;28;24807;-79
2023/02/25 10:36:55;;;;;;;5.03;1.88;;;;;;;2.41;100.00;94872.19;4987092;28;24910;-78
2023/02/25 10:39:21;;;;;;;4.90;1.83;;;;;;;2.30;100.00;94862.47;4988643;28;24492;-77
2023/02/25 10:41:48;;;;;;;4.28;1.45;;;;;;;2.35;100.00;94868.19;4983175;28;24441;-78
2023/02/25 10:44:15;;;;;;;5.15;1.83;;;;;;;2.46;100.00;94867.72;4986515;28;24565;-77
2023/02/25 10:46:50;;;;;;;4.47;1.65;;;;;;;2.36;100.00;94864.75;4991199;28;24448;-78
2023/02/25 10:49:19;;;;;;;8.57;1.80;;;;;;;2.55;100.00;94854.50;4983512;28;24445;-78
2023/02/25 10:52:05;;;;;;;4.15;1.60;;;;;;;2.46;100.00;94854.94;4987372;28;24463;-78
2023/02/25 10:54:34;;;;;;;4.68;1.50;;;;;;;2.62;100.00;94858.44;4990124;28;24441;-77
2023/02/25 10:57:07;;;;;;;5.18;2.05;;;;;;;2.69;100.00;94846.19;4992586;28;24457;-77
2023/02/25 10:59:37;;;;;;;2.55;1.27;;;;;;;2.78;100.00;94844.94;4991584;28;24444;-78
2023/02/25 11:02:17;;;;;;;3.70;1.30;;;;;;;2.83;100.00;94837.88;4988481;28;24446;-78
2023/02/25 11:04:45;;;;;;;3.92;1.10;;;;;;;3.03;98.93;94842.88;4995878;28;24439;-77
2023/02/25 11:07:31;;;;;;;4.75;1.50;;;;;;;3.21;97.61;94841.16;4992485;28;24452;-78
2023/02/25 11:10:13;;;;;;;3.85;1.30;;;;;;;2.91;97.23;94839.16;4989006;28;24478;-78
2023/02/25 11:12:43;;;;;;;3.70;1.35;;;;;;;2.78;98.21;94857.72;4982727;28;24482;-79
2023/02/25 11:15:34;;;;;;;2.83;1.50;;;;;;;2.79;98.62;94855.09;4995042;28;24436;-79
2023/02/25 11:18:15;;;;;;;4.38;1.40;;;;;;;2.69;99.56;94851.31;4978984;28;24452;-78
2023/02/25 11:20:50;;;;;;;5.70;1.50;;;;;;;2.79;100.00;94856.84;4984492;28;25038;-78
2023/02/25 11:23:22;;;;;;;2.85;1.02;;;;;;;2.64;100.00;94854.09;4994791;28;24792;-78
2023/02/25 11:25:50;;;;;;;4.30;1.27;;;;;;;2.68;100.00;94849.66;4994517;28;25002;-78
2023/02/25 11:28:22;;;;;;;3.30;1.45;;;;;;;2.81;100.00;94849.91;4993144;28;24445;-78
2023/02/25 11:30:48;;;;;;;3.30;1.20;;;;;;;2.88;100.00;94841.88;5000348;28;24444;-77
2023/02/25 11:33:23;;;;;;;4.38;1.40;;;;;;;2.87;100.00;94841.94;4998933;28;24444;-78
2023/02/25 11:35:56;;;;;;;4.30;1.52;;;;;;;2.86;100.00;94845.41;4991273;28;24461;-78
2023/02/25 11:38:28;;;;;;;3.38;1.40;;;;;;;2.77;99.69;94853.50;4992980;28;24795;-77
2023/02/25 11:40:54;;;;;;;5.90;1.40;;;;;;;2.77;100.00;94858.63;4990634;28;24460;-75